Time;durP1;ratioP1;P1;durP2;ratioP2;P2;SDS_P1;SDS_P2;PMS_P1;PMS_P2;Temp;Humidity;BMP_temperature;BMP_pressure;BME280_temperature;BME280_humidity;BME280_pressure;Samples;Min_cycle;Max_cycle;Signal;HPM_P1;HPM_P2
2021/01/03 00:00:13;;;;;;;8.40;6.00;;;;;;;3.64;75.10;95903.56;4980252;28;20031;-88
2021/01/03 00:02:39;;;;;;;7.50;5.35;;;;;;;3.27;74.41;95835.06;4980395;28;20031;-88
2021/01/03 00:05:05;;;;;;;7.97;5.85;;;;;;;3.48;75.48;95865.22;4979964;28;20141;-88
2021/01/03 00:07:30;;;;;;;8.52;6.13;;;;;;;3.46;77.30;95864.88;4980805;28;20445;-88
2021/01/03 00:09:56;;;;;;;8.70;6.30;;;;;;;3.43;75.17;95853.06;4995467;28;20026;-87
2021/01/03 00:12:21;;;;;;;9.27;6.50;;;;;;;3.45;74.13;95829.22;4999092;28;20022;-87
2021/01/03 00:14:46;;;;;;;9.57;6.47;;;;;;;3.59;75.72;95844.22;5000179;28;20025;-88
2021/01/03 00:17:12;;;;;;;9.95;6.68;;;;;;;3.78;76.10;95875.59;4998795;28;20046;-88
2021/01/03 00:19:37;;;;;;;8.65;6.55;;;;;;;3.49;75.95;95824.53;4999024;28;20034;-88
2021/01/03 00:22:03;;;;;;;7.32;5.45;;;;;;;3.74;74.48;95842.69;4999123;28;20054;-88
2021/01/03 00:24:28;;;;;;;6.97;4.82;;;;;;;3.77;73.83;95808.81;4999125;28;20030;-88
2021/01/03 00:26:53;;;;;;;7.53;4.53;;;;;;;4.02;70.76;95840.38;5000008;28;20030;-88
2021/01/03 00:29:19;;;;;;;5.75;4.63;;;;;;;3.76;72.10;95802.69;4996835;28;20037;-88
2021/01/03 00:31:48;;;;;;;6.45;4.50;;;;;;;4.23;72.05;95855.91;4980346;28;20054;-87
2021/01/03 00:34:15;;;;;;;5.10;3.78;;;;;;;4.25;71.49;95847.41;4984500;28;20053;-88
2021/01/03 00:36:40;;;;;;;5.25;2.88;;;;;;;4.29;70.16;95840.00;4999727;28;20030;-88
2021/01/03 00:39:07;;;;;;;4.38;2.88;;;;;;;4.27;68.22;95810.88;4998799;28;20033;-88
2021/01/03 00:41:32;;;;;;;3.70;2.75;;;;;;;4.67;67.18;95851.53;4999727;28;20061;-88
2021/01/03 00:43:58;;;;;;;3.75;2.53;;;;;;;4.77;66.45;95857.03;4999373;28;20062;-88
2021/01/03 00:46:24;;;;;;;3.00;2.60;;;;;;;4.75;66.63;95856.72;4987132;28;20023;-87
2021/01/03 00:48:49;;;;;;;3.83;2.38;;;;;;;4.75;66.63;95856.72;4980120;28;20143;-87
2021/01/03 00:51:14;;;;;;;2.72;2.38;;;;;;;4.61;67.63;95807.53;4988455;28;20030;-87
2021/01/03 00:53:40;;;;;;;3.53;2.40;;;;;;;4.53;66.63;95798.19;4998289;28;20489;-87
2021/01/03 00:56:05;;;;;;;3.92;2.35;;;;;;;4.78;64.98;95847.78;4999705;28;20113;-87
2021/01/03 00:58:31;;;;;;;3.13;2.28;;;;;;;4.78;64.98;95847.78;4990847;28;20037;-87
2021/01/03 01:00:56;;;;;;;2.75;2.28;;;;;;;4.78;64.98;95847.78;4978275;28;20030;-87
2021/01/03 01:03:21;;;;;;;3.35;2.40;;;;;;;4.78;64.98;95847.78;4979473;28;20082;-87
2021/01/03 01:05:47;;;;;;;3.40;2.15;;;;;;;-145.61;100.00;68426.72;4979105;28;20037;-87
2021/01/03 01:08:12;;;;;;;3.72;2.25;;;;;;;-145.61;100.00;68426.72;4979164;28;20105;-87
2021/01/03 01:10:38;;;;;;;2.95;2.30;;;;;;;4.78;64.98;95847.78;4978986;28;20023;-87
2021/01/03 01:13:03;;;;;;;2.38;2.05;;;;;;;-145.61;66.58;95820.34;4982492;28;20026;-87
2021/01/03 01:15:31;;;;;;;3.00;2.42;;;;;;;4.83;66.58;95820.34;4998234;28;20022;-87
2021/01/03 01:17:59;;;;;;;2.97;2.60;;;;;;;-145.61;100.00;68426.72;4997946;28;20053;-87
2021/01/03 01:20:27;;;;;;;2.30;2.10;;;;;;;-145.61;100.00;68426.72;4999135;28;20034;-87
2021/01/03 01:22:53;;;;;;;3.20;2.35;;;;;;;-145.61;100.00;68426.72;4998057;28;20058;-88
2021/01/03 01:25:23;;;;;;;3.85;2.20;;;;;;;-145.61;100.00;68426.72;4999065;28;20421;-87
2021/01/03 01:27:48;;;;;;;3.75;2.30;;;;;;;-145.61;100.00;68426.72;4998004;28;20295;-87
2021/01/03 01:30:15;;;;;;;3.65;2.20;;;;;;;-145.61;100.00;68426.72;4997869;28;20033;-87
2021/01/03 01:32:40;;;;;;;3.75;2.58;;;;;;;-145.61;100.00;68426.72;4998939;28;20112;-87
2021/01/03 01:35:09;;;;;;;3.97;2.17;;;;;;;-145.61;100.00;68426.72;4998754;28;20053;-87
2021/01/03 01:37:34;;;;;;;2.20;2.00;;;;;;;-145.61;100.00;68426.72;4998878;28;20406;-87
2021/01/03 01:40:00;;;;;;;2.88;2.10;;;;;;;-145.61;100.00;68426.72;4997431;28;20030;-87
2021/01/03 01:42:26;;;;;;;3.05;2.17;;;;;;;-145.61;100.00;68426.72;4991917;28;20026;-87
2021/01/03 01:44:52;;;;;;;12.50;7.75;;;;;;;-145.61;100.00;68426.72;4978399;28;20073;-87
2021/01/03 01:47:27;;;;;;;63.10;32.50;;;;;;;-145.61;100.00;68426.72;4978079;28;20062;-86
2021/01/03 01:49:55;;;;;;;17.08;9.23;;;;;;;-145.61;100.00;68426.72;4978165;28;20034;-87
2021/01/03 01:52:21;;;;;;;6.10;3.72;;;;;;;-145.61;100.00;68426.72;4978000;28;20058;-87
2021/01/03 01:54:58;;;;;;;4.05;3.10;;;;;;;-145.61;100.00;68426.72;4989161;28;20034;-87
2021/01/03 01:57:35;;;;;;;4.60;2.30;;;;;;;-145.61;100.00;68426.72;4978020;28;20026;-87
2021/01/03 02:00:08;;;;;;;4.53;2.30;;;;;;;-145.61;100.00;68426.72;4978929;28;20077;-87
2021/01/03 02:02:44;;;;;;;3.80;2.30;;;;;;;-145.61;100.00;68426.72;4977855;28;20321;-87
2021/01/03 02:05:21;;;;;;;3.95;2.50;;;;;;;-145.61;100.00;68426.72;4979410;28;20114;-87
2021/01/03 02:07:53;;;;;;;4.13;2.42;;;;;;;-145.61;100.00;68426.72;4977976;28;20307;-87
2021/01/03 02:10:21;;;;;;;3.03;2.35;;;;;;;-145.61;100.00;68426.72;4983156;28;20089;-87
2021/01/03 02:12:52;;;;;;;4.50;2.55;;;;;;;-145.61;100.00;68426.72;4992310;28;20080;-87
2021/01/03 02:15:17;;;;;;;;;;;;;;;-145.61;100.00;68426.72;4997598;28;20022;-87
2021/01/03 02:17:44;;;;;;;4.50;2.40;;;;;;;-145.61;100.00;68426.72;4998067;28;20202;-87
2021/01/03 02:20:12;;;;;;;3.03;2.58;;;;;;;-145.61;100.00;68426.72;4998015;28;20277;-87
2021/01/03 02:22:43;;;;;;;2.78;2.03;;;;;;;-145.61;100.00;68426.72;4997855;28;20027;-87
2021/01/03 02:25:10;;;;;;;;;;;;;;;-145.61;100.00;68426.72;4984760;28;20037;-87
2021/01/03 02:28:09;;;;;;;3.85;2.20;;;;;;;-145.61;100.00;68426.72;4978546;28;19909;-87
2021/01/03 02:30:35;;;;;;;3.70;2.08;;;;;;;-145.61;100.00;68426.72;4977616;28;20130;-87
2021/01/03 02:33:09;;;;;;;3.13;2.20;;;;;;;-145.61;100.00;68426.72;4978419;28;20033;-87
2021/01/03 02:35:37;;;;;;;2.22;1.85;;;;;;;-145.61;100.00;68426.72;4978259;28;20161;-87
2021/01/03 02:38:04;;;;;;;3.70;2.25;;;;;;;-145.61;100.00;68426.72;4978522;28;20026;-87
2021/01/03 02:40:30;;;;;;;4.15;2.40;;;;;;;-145.61;100.00;68426.72;4989327;28;20022;-87
2021/01/03 02:42:55;;;;;;;3.10;1.98;;;;;;;-145.61;100.00;68426.72;4996568;28;20030;-87
2021/01/03 02:45:29;;;;;;;3.20;2.30;;;;;;;-145.61;100.00;68426.72;4996487;28;20113;-87
2021/01/03 02:48:00;;;;;;;3.65;2.40;;;;;;;-145.61;100.00;68426.72;4997591;28;20108;-87
2021/01/03 02:50:26;;;;;;;2.78;2.03;;;;;;;-145.61;100.00;68426.72;4997812;28;20037;-87
2021/01/03 02:52:52;;;;;;;2.65;2.17;;;;;;;-145.61;100.00;68426.72;4991655;28;20022;-87
2021/01/03 02:55:19;;;;;;;2.75;2.13;;;;;;;-145.61;100.00;68426.72;4993060;28;20076;-87
2021/01/03 02:57:44;;;;;;;4.63;2.20;;;;;;;-145.61;100.00;68426.72;4996246;28;20109;-86
2021/01/03 03:00:15;;;;;;;2.88;2.10;;;;;;;-145.61;100.00;68426.72;4996384;28;20117;-87
2021/01/03 03:02:40;;;;;;;2.97;1.80;;;;;;;-145.61;100.00;68426.72;4996430;28;20026;-87
2021/01/03 03:05:06;;;;;;;3.30;2.17;;;;;;;-145.61;100.00;68426.72;4996798;28;20027;-87
2021/01/03 03:07:32;;;;;;;3.45;2.47;;;;;;;-145.61;100.00;68426.72;4997322;28;20030;-87
2021/01/03 03:09:57;;;;;;;3.65;2.30;;;;;;;-145.61;100.00;68426.72;4996963;28;20322;-87
2021/01/03 03:12:23;;;;;;;2.60;2.15;;;;;;;-145.61;100.00;68426.72;4996392;28;20313;-87
2021/01/03 03:14:48;;;;;;;3.50;2.22;;;;;;;-145.61;100.00;68426.72;4996380;28;20026;-87
2021/01/03 03:17:14;;;;;;;3.03;2.33;;;;;;;-145.61;100.00;68426.72;4997618;28;20077;-87
2021/01/03 03:19:40;;;;;;;3.85;2.50;;;;;;;-145.61;100.00;68426.72;4996448;28;20224;-87
2021/01/03 03:22:05;;;;;;;3.38;2.08;;;;;;;-145.61;100.00;68426.72;4996939;28;20050;-87
2021/01/03 03:24:30;;;;;;;2.95;2.10;;;;;;;-145.61;100.00;68426.72;4982617;28;20027;-87
2021/01/03 03:26:59;;;;;;;2.90;2.10;;;;;;;-145.61;100.00;68426.72;4980615;28;20026;-87
2021/01/03 03:29:25;;;;;;;3.13;1.77;;;;;;;-145.61;100.00;68426.72;4981545;28;20030;-87
2021/01/03 03:31:51;;;;;;;3.38;2.10;;;;;;;-145.61;100.00;68426.72;4981618;28;20091;-87
2021/01/03 03:34:18;;;;;;;2.90;2.45;;;;;;;-145.61;100.00;68426.72;4980424;28;20030;-87
2021/01/03 03:36:44;;;;;;;3.63;2.28;;;;;;;-145.61;100.00;68426.72;4987771;28;20023;-87
2021/01/03 03:39:27;;;;;;;2.97;2.30;;;;;;;-145.61;100.00;68426.72;4999865;28;20026;-87
2021/01/03 03:42:00;;;;;;;3.22;2.15;;;;;;;-145.61;100.00;68426.72;4999719;28;20029;-87
2021/01/03 03:44:27;;;;;;;3.15;2.00;;;;;;;-145.61;100.00;68426.72;5000729;28;20073;-88
2021/01/03 03:46:55;;;;;;;4.43;2.30;;;;;;;-145.61;100.00;68426.72;4999588;28;20429;-87
2021/01/03 03:49:21;;;;;;;4.03;2.72;;;;;;;-145.61;100.00;68426.72;4999648;28;20030;-87
2021/01/03 03:51:46;;;;;;;4.65;2.60;;;;;;;-145.61;100.00;68426.72;4982974;28;20034;-87
2021/01/03 03:54:12;;;;;;;4.07;3.33;;;;;;;-145.61;100.00;68426.72;4980077;28;20019;-87
2021/01/03 03:56:37;;;;;;;4.50;3.00;;;;;;;-145.61;100.00;68426.72;4981035;28;20042;-87
2021/01/03 03:59:03;;;;;;;3.35;2.60;;;;;;;-145.61;100.00;68426.72;4981539;28;20037;-87
2021/01/03 04:01:38;;;;;;;3.00;2.22;;;;;;;-145.61;100.00;68426.72;4980961;28;20110;-87
2021/01/03 04:04:04;;;;;;;3.30;2.15;;;;;;;-145.61;100.00;68426.72;4988025;28;20096;-87
2021/01/03 04:06:29;;;;;;;3.08;2.15;;;;;;;-145.61;100.00;68426.72;4999247;28;20421;-86
2021/01/03 04:08:55;;;;;;;2.80;2.40;;;;;;;-145.61;100.00;68426.72;4999353;28;20037;-87
2021/01/03 04:11:20;;;;;;;3.20;2.10;;;;;;;-145.61;100.00;68426.72;4999224;28;20081;-87
2021/01/03 04:13:46;;;;;;;2.38;2.10;;;;;;;-145.61;100.00;68426.72;4999133;28;20018;-87
2021/01/03 04:16:11;;;;;;;2.75;2.45;;;;;;;-145.61;100.00;68426.72;4999411;28;20068;-87
2021/01/03 04:18:36;;;;;;;3.67;2.45;;;;;;;-145.61;100.00;68426.72;4998815;28;20141;-87
2021/01/03 04:21:02;;;;;;;3.22;2.40;;;;;;;-145.61;100.00;68426.72;4999062;28;20546;-87
2021/01/03 04:23:27;;;;;;;4.38;2.40;;;;;;;-145.61;100.00;68426.72;4998871;28;20030;-87
2021/01/03 04:25:54;;;;;;;3.70;2.38;;;;;;;-145.61;100.00;68426.72;4999459;28;20026;-87
2021/01/03 04:28:20;;;;;;;3.42;2.13;;;;;;;-145.61;100.00;68426.72;4981243;28;20034;-87
2021/01/03 04:30:45;;;;;;;3.00;2.15;;;;;;;-145.61;100.00;68426.72;4980421;28;20026;-87
2021/01/03 04:33:10;;;;;;;3.92;2.28;;;;;;;-145.61;100.00;68426.72;4979402;28;20468;-87
2021/01/03 04:35:36;;;;;;;3.15;2.30;;;;;;;-145.61;100.00;68426.72;4978093;28;20030;-87
2021/01/03 04:38:01;;;;;;;3.97;2.20;;;;;;;-145.61;100.00;68426.72;4979298;28;20030;-87
2021/01/03 04:40:30;;;;;;;2.80;2.15;;;;;;;-145.61;100.00;68426.72;4991262;28;20049;-87
2021/01/03 04:43:03;;;;;;;5.15;2.40;;;;;;;-145.61;100.00;68426.72;4979014;28;20367;-87
2021/01/03 04:45:37;;;;;;;3.75;2.40;;;;;;;-145.61;100.00;68426.72;4979129;28;20026;-87
2021/01/03 04:48:06;;;;;;;3.75;2.40;;;;;;;-145.61;100.00;68426.72;4978967;28;20030;-87
2021/01/03 04:50:47;;;;;;;2.97;2.30;;;;;;;-145.61;100.00;68426.72;4979011;28;20030;-87
2021/01/03 04:53:15;;;;;;;5.30;2.67;;;;;;;-145.61;100.00;68426.72;4978959;28;20295;-87
2021/01/03 04:55:45;;;;;;;4.47;2.40;;;;;;;-145.61;100.00;68426.72;4994143;28;20042;-87
2021/01/03 04:58:14;;;;;;;3.63;2.50;;;;;;;-145.61;100.00;68426.72;4998479;28;20320;-87
2021/01/03 05:00:46;;;;;;;3.03;2.47;;;;;;;-145.61;100.00;68426.72;4998176;28;20418;-87
2021/01/03 05:03:36;;;;;;;5.07;2.40;;;;;;;-145.61;100.00;68426.72;4998243;28;20410;-87
2021/01/03 05:06:10;;;;;;;3.77;2.50;;;;;;;-145.61;100.00;68426.72;4998141;28;20034;-86
2021/01/03 05:08:48;;;;;;;3.72;2.20;;;;;;;-145.61;100.00;68426.72;4997184;28;20037;-87
2021/01/03 05:11:19;;;;;;;2.50;2.20;;;;;;;-145.61;100.00;68426.72;4979883;28;20022;-87
2021/01/03 05:14:12;;;;;;;2.60;2.20;;;;;;;-145.61;100.00;68426.72;4998205;28;20080;-87
2021/01/03 05:16:37;;;;;;;3.05;2.20;;;;;;;-145.61;100.00;68426.72;4998938;28;20429;-87
2021/01/03 05:19:03;;;;;;;5.03;2.80;;;;;;;-145.61;100.00;68426.72;4998927;28;20109;-87
2021/01/03 05:21:47;;;;;;;4.20;2.58;;;;;;;-145.61;100.00;68426.72;4993785;28;20019;-87
2021/01/03 05:24:13;;;;;;;3.55;2.65;;;;;;;-145.61;100.00;68426.72;4991134;28;20026;-87
2021/01/03 05:26:38;;;;;;;3.75;2.50;;;;;;;-145.61;100.00;68426.72;4983220;28;20505;-86
2021/01/03 05:29:05;;;;;;;3.30;2.28;;;;;;;-145.61;100.00;68426.72;4979348;28;20035;-87
2021/01/03 05:31:31;;;;;;;4.40;2.40;;;;;;;-145.61;100.00;68426.72;4979627;28;20037;-87
2021/01/03 05:34:00;;;;;;;4.00;2.53;;;;;;;-145.61;100.00;68426.72;4979251;28;20023;-87
2021/01/03 05:36:35;;;;;;;3.05;2.50;;;;;;;-145.61;100.00;68426.72;4980846;28;20038;-87
2021/01/03 05:39:09;;;;;;;3.25;2.90;;;;;;;-145.61;100.00;68426.72;4993102;28;20456;-87
2021/01/03 05:41:44;;;;;;;5.85;2.53;;;;;;;-145.61;100.00;68426.72;4997570;28;20030;-87
2021/01/03 05:44:24;;;;;;;4.25;2.33;;;;;;;-145.61;100.00;68426.72;4997337;28;20393;-86
2021/01/03 05:47:00;;;;;;;2.60;2.40;;;;;;;-145.61;100.00;68426.72;4998274;28;20194;-87
2021/01/03 05:49:29;;;;;;;6.72;3.10;;;;;;;-145.61;100.00;68426.72;4998554;28;20034;-87
2021/01/03 05:52:06;;;;;;;6.90;2.83;;;;;;;-145.61;100.00;68426.72;4990755;28;20034;-87
2021/01/03 05:54:36;;;;;;;3.75;2.90;;;;;;;-145.61;100.00;68426.72;4977799;28;20030;-87
2021/01/03 05:57:21;;;;;;;4.53;3.20;;;;;;;-145.61;100.00;68426.72;4978923;28;20410;-87
2021/01/03 05:59:47;;;;;;;5.63;3.70;;;;;;;-145.61;100.00;68426.72;4977664;28;20334;-87
2021/01/03 06:02:18;;;;;;;5.53;3.85;;;;;;;-145.61;100.00;68426.72;4979145;28;20019;-87
2021/01/03 06:04:43;;;;;;;7.10;4.05;;;;;;;-145.61;100.00;68426.72;4992618;28;20025;-87
2021/01/03 06:07:29;;;;;;;5.88;3.90;;;;;;;-145.61;100.00;68426.72;4996552;28;20034;-86
2021/01/03 06:09:54;;;;;;;4.80;3.47;;;;;;;-145.61;100.00;68426.72;4997099;28;20026;-87
2021/01/03 06:12:26;;;;;;;4.70;2.55;;;;;;;-145.61;100.00;68426.72;4998048;28;20026;-87
2021/01/03 06:15:06;;;;;;;3.33;2.75;;;;;;;-145.61;100.00;68426.72;4996844;28;20026;-87
2021/01/03 06:17:33;;;;;;;4.60;3.03;;;;;;;-145.61;100.00;68426.72;4996739;28;20200;-87
2021/01/03 06:20:04;;;;;;;2.72;2.50;;;;;;;-145.61;100.00;68426.72;4997594;28;20037;-86
2021/01/03 06:22:38;;;;;;;5.30;2.72;;;;;;;-145.61;100.00;68426.72;4983070;28;20418;-86
2021/01/03 06:25:17;;;;;;;3.75;2.70;;;;;;;-145.61;100.00;68426.72;4978421;28;20035;-86
2021/01/03 06:27:47;;;;;;;4.80;2.78;;;;;;;-145.61;100.00;68426.72;4992354;28;20052;-87
2021/01/03 06:30:15;;;;;;;4.73;2.80;;;;;;;-145.61;100.00;68426.72;4997411;28;20037;-87
2021/01/03 06:33:13;;;;;;;4.75;3.15;;;;;;;-145.61;100.00;68426.72;4977110;28;20035;-87
2021/01/03 06:35:38;;;;;;;4.03;3.10;;;;;;;-145.61;100.00;68426.72;4995666;28;20026;-87
2021/01/03 06:38:15;;;;;;;3.90;2.70;;;;;;;-145.61;100.00;68426.72;4997703;28;20034;-87
2021/01/03 06:40:56;;;;;;;3.95;3.03;;;;;;;-145.61;100.00;68426.72;4996456;28;20037;-86
2021/01/03 06:43:27;;;;;;;4.68;3.03;;;;;;;-145.61;100.00;68426.72;4998065;28;20027;-87
2021/01/03 06:46:19;;;;;;;4.68;3.38;;;;;;;-145.61;100.00;68426.72;4997510;28;20302;-87
2021/01/03 06:48:53;;;;;;;4.05;2.78;;;;;;;-145.61;100.00;68426.72;4996335;28;20034;-87
2021/01/03 06:51:37;;;;;;;6.93;3.30;;;;;;;-145.61;100.00;68426.72;4996511;28;20418;-87
2021/01/03 06:54:15;;;;;;;6.63;3.10;;;;;;;4.83;66.58;95820.34;4997562;28;20029;-87
2021/01/03 06:56:51;;;;;;;5.03;3.55;;;;;;;4.83;66.58;95820.34;4997517;28;20495;-87
2021/01/03 06:59:30;;;;;;;4.95;3.22;;;;;;;-145.61;100.00;68426.72;5000089;28;20295;-86
2021/01/03 07:01:57;;;;;;;5.88;3.30;;;;;;;4.83;66.58;95820.34;5001499;28;20070;-87
2021/01/03 07:04:28;;;;;;;5.07;3.38;;;;;;;4.71;70.84;95722.31;4992138;28;20085;-87
2021/01/03 07:06:56;;;;;;;5.80;3.67;;;;;;;-145.61;100.00;68426.72;4982033;28;20039;-87
2021/01/03 07:09:22;;;;;;;5.63;3.60;;;;;;;4.71;70.84;95722.31;4994314;28;20061;-87
2021/01/03 07:11:58;;;;;;;6.90;4.60;;;;;;;-145.61;100.00;68426.72;5000243;28;20161;-87
2021/01/03 07:14:24;;;;;;;5.82;4.00;;;;;;;-145.61;100.00;68426.72;5000233;28;20048;-87
2021/01/03 07:17:06;;;;;;;6.95;3.55;;;;;;;-145.61;100.00;68426.72;5001495;28;20105;-87
2021/01/03 07:19:31;;;;;;;4.38;3.10;;;;;;;-145.61;100.00;68426.72;4996926;28;20033;-88
2021/01/03 07:22:02;;;;;;;6.15;3.30;;;;;;;-145.61;100.00;68426.72;4982103;28;20026;-88
2021/01/03 07:24:35;;;;;;;4.28;3.30;;;;;;;-145.61;100.00;68426.72;4980758;28;20030;-87
2021/01/03 07:27:35;;;;;;;4.20;3.58;;;;;;;-145.61;100.00;68426.72;4983548;28;20030;-88
2021/01/03 07:30:03;;;;;;;56.53;31.83;;;;;;;-145.61;100.00;68426.72;4980576;28;20038;-88
2021/01/03 07:32:38;;;;;;;90.15;48.38;;;;;;;-145.61;100.00;68426.72;4986948;28;20045;-88
2021/01/03 07:35:32;;;;;;;25.83;15.73;;;;;;;-145.61;100.00;68426.72;4999878;28;20116;-88
2021/01/03 07:38:21;;;;;;;23.15;13.52;;;;;;;-145.61;100.00;68426.72;4983570;28;20042;-87
2021/01/03 07:41:06;;;;;;;19.08;10.68;;;;;;;-145.61;100.00;68426.72;4988338;28;20410;-88
2021/01/03 07:43:53;;;;;;;10.45;6.35;;;;;;;-145.61;100.00;68426.72;5000182;28;20034;-88
2021/01/03 07:46:39;;;;;;;8.57;5.63;;;;;;;-145.61;100.00;68426.72;4987165;28;20037;-89
2021/01/03 07:49:23;;;;;;;11.20;5.38;;;;;;;-145.61;100.00;68426.72;4996464;28;20029;-89
2021/01/03 07:51:49;;;;;;;9.68;6.38;;;;;;;-145.61;100.00;68426.72;5000632;28;20061;-87
2021/01/03 07:54:15;;;;;;;10.15;6.22;;;;;;;-145.61;100.00;68426.72;4991771;28;20109;-87
2021/01/03 07:56:40;;;;;;;8.68;6.10;;;;;;;-145.61;100.00;68426.72;4988899;28;20419;-87
2021/01/03 07:59:15;;;;;;;11.18;5.97;;;;;;;-145.61;100.00;68426.72;4990886;28;20034;-86
2021/01/03 08:01:53;;;;;;;7.68;5.40;;;;;;;-145.61;100.00;68426.72;4992524;28;20053;-87
2021/01/03 08:04:24;;;;;;;9.02;5.50;;;;;;;-145.61;100.00;68426.72;4979820;28;20038;-87
2021/01/03 08:06:50;;;;;;;7.30;5.20;;;;;;;-145.61;100.00;68426.72;4990351;28;20221;-87
2021/01/03 08:09:27;;;;;;;5.35;4.28;;;;;;;-145.61;100.00;68426.72;4981579;28;20082;-87
2021/01/03 08:12:22;;;;;;;5.97;4.80;;;;;;;-145.61;100.00;68426.72;4991333;28;20309;-87
2021/01/03 08:14:49;;;;;;;5.55;4.22;;;;;;;-145.61;100.00;68426.72;4990903;28;20327;-88
2021/01/03 08:17:24;;;;;;;5.03;4.28;;;;;;;-145.61;100.00;68426.72;4999152;28;20042;-88
2021/01/03 08:19:51;;;;;;;8.05;4.10;;;;;;;-145.61;100.00;68426.72;4995030;28;20030;-88
2021/01/03 08:22:28;;;;;;;6.68;4.35;;;;;;;-145.61;100.00;68426.72;4999874;28;20018;-88
2021/01/03 08:25:00;;;;;;;4.60;3.67;;;;;;;-145.61;100.00;68426.72;4994372;28;20370;-88
2021/01/03 08:27:33;;;;;;;4.03;3.30;;;;;;;-145.61;100.00;68426.72;4987674;28;20089;-87
2021/01/03 08:30:07;;;;;;;4.57;3.58;;;;;;;-145.61;100.00;68426.72;4997548;28;20030;-90
2021/01/03 08:32:37;;;;;;;4.25;3.47;;;;;;;-145.61;100.00;68426.72;5002503;28;20037;-88
2021/01/03 08:35:11;;;;;;;4.60;4.03;;;;;;;-145.61;100.00;68426.72;4987935;28;20029;-89
2021/01/03 08:37:55;;;;;;;6.13;3.88;;;;;;;-145.61;100.00;68426.72;5009826;28;20037;-88
2021/01/03 08:40:33;;;;;;;5.63;4.00;;;;;;;-145.61;100.00;68426.72;4999879;28;20042;-88
2021/01/03 08:43:12;;;;;;;5.20;3.97;;;;;;;-145.61;100.00;68426.72;4993931;28;20450;-89
2021/01/03 08:45:39;;;;;;;5.55;3.78;;;;;;;-145.61;100.00;68426.72;5003406;28;20433;-88
2021/01/03 08:48:10;;;;;;;4.88;3.75;;;;;;;-145.61;100.00;68426.72;4988138;28;20050;-87
2021/01/03 08:50:37;;;;;;;;;;;;;;;-145.61;100.00;68426.72;4994460;28;20027;-88
2021/01/03 08:53:08;;;;;;;4.80;3.35;;;;;;;-145.61;100.00;68426.72;4987324;28;20201;-88
2021/01/03 08:55:37;;;;;;;4.97;3.92;;;;;;;-145.61;100.00;68426.72;4986111;28;20029;-88
2021/01/03 08:58:07;;;;;;;6.22;4.00;;;;;;;-145.61;100.00;68426.72;4995107;28;20022;-88
2021/01/03 09:00:37;;;;;;;11.00;7.50;;;;;;;-145.61;100.00;68426.72;4992789;28;20027;-89
2021/01/03 09:03:05;;;;;;;14.57;8.63;;;;;;;-145.61;100.00;68426.72;4988522;28;20018;-89
2021/01/03 09:05:35;;;;;;;8.68;4.82;;;;;;;-145.61;100.00;68426.72;4998694;28;20053;-90
2021/01/03 09:08:01;;;;;;;5.15;4.00;;;;;;;-145.61;100.00;68426.72;4982020;28;20474;-88
2021/01/03 09:10:39;;;;;;;7.53;4.05;;;;;;;-145.61;100.00;68426.72;4993199;28;20311;-89
2021/01/03 09:13:35;;;;;;;5.78;4.00;;;;;;;-145.61;100.00;68426.72;4993673;28;20162;-89
2021/01/03 09:16:20;;;;;;;5.97;4.50;;;;;;;-145.61;100.00;68426.72;4972266;28;20046;-89
2021/01/03 09:19:04;;;;;;;7.03;4.32;;;;;;;-145.61;100.00;68426.72;4991662;28;20135;-89
2021/01/03 09:21:30;;;;;;;5.63;3.88;;;;;;;-145.61;100.00;68426.72;4980452;28;20035;-89
2021/01/03 09:24:04;;;;;;;7.35;4.70;;;;;;;-145.61;100.00;68426.72;4991045;28;20053;-89
2021/01/03 09:26:40;;;;;;;5.30;4.65;;;;;;;-145.61;100.00;68426.72;5008720;28;20121;-89
2021/01/03 09:29:15;;;;;;;6.47;3.50;;;;;;;-145.61;100.00;68426.72;5006353;28;20030;-88
2021/01/03 09:32:28;;;;;;;5.05;4.00;;;;;;;-145.61;100.00;68426.72;5003526;28;20026;-88
2021/01/03 09:35:47;;;;;;;7.85;4.00;;;;;;;-145.61;100.00;68426.72;4954183;28;20031;-88
2021/01/03 09:38:28;;;;;;;7.63;4.15;;;;;;;-145.61;100.00;68426.72;4924523;29;20027;-88
2021/01/03 09:41:12;;;;;;;7.15;4.47;;;;;;;-145.61;100.00;68426.72;4922976;29;20035;-88
2021/01/03 09:43:56;;;;;;;6.57;4.60;;;;;;;-145.61;100.00;68426.72;4972209;28;20406;-88
2021/01/03 09:46:46;;;;;;;5.90;4.68;;;;;;;-145.61;100.00;68426.72;4998516;28;20033;-88
2021/01/03 09:49:36;;;;;;;6.17;4.67;;;;;;;-145.61;100.00;68426.72;4984233;28;20049;-88
2021/01/03 09:52:26;;;;;;;5.68;4.40;;;;;;;-145.61;100.00;68426.72;4997335;28;20049;-87
2021/01/03 09:55:13;;;;;;;7.17;4.40;;;;;;;-145.61;100.00;68426.72;5006340;28;20053;-88
2021/01/03 09:57:39;;;;;;;5.10;4.20;;;;;;;-145.61;100.00;68426.72;4996569;28;20022;-88
2021/01/03 10:00:10;;;;;;;8.02;4.45;;;;;;;-145.61;100.00;68426.72;5002869;28;20032;-88
2021/01/03 10:02:36;;;;;;;7.82;5.10;;;;;;;-145.61;100.00;68426.72;5008715;28;20023;-88
2021/01/03 10:05:04;;;;;;;6.47;3.90;;;;;;;-145.61;100.00;68426.72;4998295;28;20045;-88
2021/01/03 10:07:30;;;;;;;4.45;3.58;;;;;;;-145.61;100.00;68426.72;5012887;28;20030;-88
2021/01/03 10:10:03;;;;;;;4.18;3.30;;;;;;;-145.61;100.00;68426.72;5017642;28;20083;-87
2021/01/03 10:12:31;;;;;;;3.70;3.10;;;;;;;-145.61;100.00;68426.72;4992695;28;20077;-87
2021/01/03 10:15:23;;;;;;;5.28;3.50;;;;;;;-145.61;100.00;68426.72;4990220;28;20022;-88
2021/01/03 10:18:01;;;;;;;3.63;2.90;;;;;;;-145.61;100.00;68426.72;4980981;28;20054;-87
2021/01/03 10:20:34;;;;;;;3.35;3.05;;;;;;;-145.61;100.00;68426.72;4984453;28;20031;-88
2021/01/03 10:23:00;;;;;;;3.58;2.88;;;;;;;-145.61;100.00;68426.72;5002906;28;20033;-88
2021/01/03 10:25:26;;;;;;;4.32;3.53;;;;;;;-145.61;100.00;68426.72;4997037;28;20121;-89
2021/01/03 10:28:08;;;;;;;4.35;3.10;;;;;;;-145.61;100.00;68426.72;4997849;28;20037;-88
2021/01/03 10:30:34;;;;;;;3.65;2.78;;;;;;;-145.61;100.00;68426.72;4998074;28;20417;-87
2021/01/03 10:33:00;;;;;;;3.33;3.00;;;;;;;-145.61;100.00;68426.72;4998389;28;20034;-87
2021/01/03 10:35:26;;;;;;;4.57;3.25;;;;;;;-145.61;100.00;68426.72;5005206;28;20027;-88
2021/01/03 10:37:51;;;;;;;3.03;2.72;;;;;;;-145.61;100.00;68426.72;4977780;28;20026;-86
2021/01/03 10:40:19;;;;;;;3.47;3.15;;;;;;;-145.61;100.00;68426.72;4984695;28;20373;-88
2021/01/03 10:42:45;;;;;;;3.30;2.88;;;;;;;-145.61;100.00;68426.72;5005633;28;20037;-88
2021/01/03 10:45:11;;;;;;;4.25;3.10;;;;;;;-145.61;100.00;68426.72;5010441;28;20022;-89
2021/01/03 10:47:36;;;;;;;7.43;4.53;;;;;;;-145.61;100.00;68426.72;4989813;28;20108;-88
2021/01/03 10:50:03;;;;;;;21.45;11.90;;;;;;;-145.61;100.00;68426.72;4996565;28;20429;-89
2021/01/03 10:52:28;;;;;;;57.90;30.25;;;;;;;-145.61;100.00;68426.72;5000128;28;20156;-89
2021/01/03 10:54:54;;;;;;;27.38;15.52;;;;;;;-145.61;100.00;68426.72;5000685;28;20064;-89
2021/01/03 10:57:19;;;;;;;62.92;33.78;;;;;;;-145.61;100.00;68426.72;5006841;28;20080;-88
2021/01/03 10:59:45;;;;;;;67.00;35.33;;;;;;;-145.61;100.00;68426.72;5007766;28;20038;-89
2021/01/03 11:02:10;;;;;;;46.15;26.25;;;;;;;-145.61;100.00;68426.72;4996014;28;20022;-89
2021/01/03 11:04:36;;;;;;;39.83;22.15;;;;;;;-145.61;100.00;68426.72;4985872;28;20030;-88
2021/01/03 11:07:01;;;;;;;30.42;18.40;;;;;;;-145.61;100.00;68426.72;4997244;28;20029;-89
2021/01/03 11:09:32;;;;;;;27.23;17.65;;;;;;;-145.61;100.00;68426.72;4992669;28;20410;-88
2021/01/03 11:12:06;;;;;;;28.35;16.05;;;;;;;-145.61;100.00;68426.72;4996496;28;20026;-89
2021/01/03 11:14:33;;;;;;;20.27;13.35;;;;;;;-145.61;100.00;68426.72;4992738;28;20027;-88
2021/01/03 11:16:58;;;;;;;19.00;12.13;;;;;;;-145.61;100.00;68426.72;4981000;28;20342;-88
2021/01/03 11:19:24;;;;;;;12.18;7.40;;;;;;;-145.61;100.00;68426.72;4993254;28;20026;-88
2021/01/03 11:21:58;;;;;;;8.63;6.72;;;;;;;-145.61;100.00;68426.72;4990639;28;20030;-89
2021/01/03 11:24:24;;;;;;;6.75;5.72;;;;;;;-145.61;100.00;68426.72;5009873;28;20022;-88
2021/01/03 11:26:51;;;;;;;7.30;5.45;;;;;;;-145.61;100.00;68426.72;5007377;28;20033;-89
2021/01/03 11:29:20;;;;;;;7.95;5.00;;;;;;;-145.61;100.00;68426.72;4989361;28;20027;-88